Decoded Metar for CYUY (ROUYN in QC, CANADA) (IATA:YUY) | Meteo·Mobile Aviation Weather
aviador You're here:

CYUY Decoded Metar

ROUYN in QC, CANADA
Report Time2018-09-18 21:00:00
UTC Time2018-09-18 21:54:45
Flight Rules mvfr MVFR
Wind360° at 08 kt
W.Decomp.*RWY 08: 3.1 kt HW 7.4 kt LCW
Visibility9999 m
Phenomena:N/A
Clouds:Overcast 014 Hf
Expected CloudBase > 1,200 ft AGL from Temp-Dew spread
Ceiling1,400 ft
Temp09°C (ISA -4)
Dew Point06°C (82% RH)
AAT5.2°C
QNH1015 hPa
Density Alt568 ft
Elevation988 ft
Report Wrong Elevation
Raw Report
CYUY 182100Z 36008KT 300V020 15SM OVC014 09/06 A2998 RMK SC8
SLP163=

Extra information for CYUY:More info

Metar Taf Metar & Taf Last 4 Metars F.Rules Stats Wind Profile Meteogram Temp Stats Airport Information Weather charts Add Link Nearby VenuesMetar ALERT Operation Metar Decoded Social comments